Latest Coastal Weather Observations for Rosslyn Bay Harbour

IDQ60701

Issued at 7:35 am EST Saturday 29 November 2014 (issued every 10 minutes, with the page automatically refreshed every 10 minutes)

About coastal observations | Map of coastal stations | Coastal observations for QLD | Marine services | Other Formats
Station Details ID: 033208 Name: ROSSLYN BAY NTC AWS Lat: -23.16 Lon: 150.79 Height: 0.0 m
Data from the previous 72 hours. | See also: Recent months for locations in Queensland
Date/Time
EST
Temp

°C
Wind Pressure Rain
since 9am
mm
Weather Cloud Vis
km
Sea
Height
m
Swell
Dir
 
Speed
knots
Gust
knots
hPa Trend Height
m
Period
s
Dir
29/07:30am 25.8 S 7 14 1015.0 - - - - - - - - -
29/07:00am 25.5 S 5 10 1014.8 - - - - - - - - -
29/06:30am 25.5 SW 4 9 1014.7 - - - - - - - - -
29/06:00am 25.3 SSW 5 11 1014.4 - - - - - - - - -
29/05:30am 25.2 SW 4 11 1014.1 - - - - - - - - -
29/05:00am 25.1 SSW 6 11 1013.9 - - - - - - - - -
29/04:30am 25.1 S 5 11 1013.5 - - - - - - - - -
29/04:00am 25.1 SSW 4 13 1013.3 - - - - - - - - -
29/03:30am 25.2 S 5 11 1013.4 - - - - - - - - -
29/03:00am 25.1 SSW 6 12 1013.3 - - - - - - - - -
29/02:30am 25.2 SSW 6 13 1013.3 - - - - - - - - -
29/02:00am 25.2 S 6 13 1013.5 - - - - - - - - -
29/01:30am 25.2 S 5 11 1013.8 - - - - - - - - -
29/01:00am 25.3 SW 4 11 1014.0 - - - - - - - - -
29/12:30am 25.4 SSW 5 13 1014.4 - - - - - - - - -
29/12:00am 25.3 S 5 13 1014.6 - - - - - - - - -
 
Date/Time
EST
Temp

°C
Wind Pressure Rain
since 9am
mm
Weather Cloud Vis
km
Sea
Height
m
Swell
Dir
 
Speed
knots
Gust
knots
hPa Trend Height
m
Period
s
Dir
28/11:30pm 25.5 S 6 14 1015.1 - - - - - - - - -
28/11:00pm 25.4 S 6 12 1015.4 - - - - - - - - -
28/10:30pm 25.4 SSW 5 11 1015.4 - - - - - - - - -
28/10:00pm 25.5 SSW 7 16 1015.4 - - - - - - - - -
28/09:30pm 25.5 S 6 14 1015.3 - - - - - - - - -
28/09:00pm 25.5 S 6 12 1015.2 - - - - - - - - -
28/08:30pm 25.4 SSW 6 14 1015.2 - - - - - - - - -
28/08:00pm 25.5 S 5 13 1015.1 - - - - - - - - -
28/07:30pm 25.5 SSW 5 12 1014.6 - - - - - - - - -
28/07:00pm 25.4 S 5 12 1014.4 - - - - - - - - -
28/06:30pm 25.5 SSW 5 12 1014.3 - - - - - - - - -
28/06:00pm 25.8 S 5 12 1013.9 - - - - - - - - -
28/05:30pm 26.0 SSW 5 12 1013.7 - - - - - - - - -
28/05:00pm 26.3 S 6 14 1013.8 - - - - - - - - -
28/04:30pm 25.9 S 6 14 1013.5 - - - - - - - - -
28/04:00pm 26.0 SSW 5 12 1013.4 - - - - - - - - -
28/03:30pm 26.4 S 5 11 1013.6 - - - - - - - - -
28/03:00pm 26.6 S 5 10 1013.7 - - - - - - - - -
28/02:30pm 27.1 S 5 12 1013.7 - - - - - - - - -
28/02:00pm 27.0 S 6 16 1013.9 - - - - - - - - -
28/01:30pm 26.7 S 6 13 1014.3 - - - - - - - - -
28/01:00pm 26.6 S 7 14 1014.6 - - - - - - - - -
28/12:30pm 26.6 S 7 15 1014.7 - - - - - - - - -
28/12:00pm 26.8 S 5 13 1015.1 - - - - - - - - -
28/11:30am 26.5 S 7 11 1015.2 - - - - - - - - -
28/11:00am 26.5 S 5 10 1015.5 - - - - - - - - -
28/10:30am 26.5 S 8 13 1015.6 - - - - - - - - -
28/10:00am 26.5 S 8 12 1015.6 - - - - - - - - -
28/09:30am 26.4 S 6 12 1015.6 - - - - - - - - -
28/09:00am 26.5 S 5 11 1015.6 - - - - - - - - -
28/08:30am 26.4 S 5 10 1015.6 - - - - - - - - -
28/08:00am 26.1 S 5 10 1015.5 - - - - - - - - -
28/07:30am 25.9 S 5 10 1015.5 - - - - - - - - -
28/07:00am 25.6 SSW 4 10 1015.1 - - - - - - - - -
28/06:30am 25.6 SSW 5 11 1014.6 - - - - - - - - -
28/06:00am 25.4 SSW 5 12 1014.3 - - - - - - - - -
28/05:30am 25.3 SSW 5 10 1014.0 - - - - - - - - -
28/05:00am 25.3 SSW 4 12 1013.6 - - - - - - - - -
28/04:30am 25.2 SSW 5 10 1013.3 - - - - - - - - -
28/04:00am 25.2 SSW 4 10 1013.0 - - - - - - - - -
28/03:30am 25.4 SSW 5 11 1012.8 - - - - - - - - -
28/03:00am 25.4 S 6 13 1012.8 - - - - - - - - -
28/02:30am 25.4 SSW 5 12 1013.2 - - - - - - - - -
28/02:00am 25.4 WSW 3 9 1013.1 - - - - - - - - -
28/01:30am 25.3 SSW 4 12 1013.4 - - - - - - - - -
28/01:00am 25.4 WSW 3 8 1013.4 - - - - - - - - -
28/12:30am 25.5 SSW 4 9 1013.7 - - - - - - - - -
28/12:00am 25.5 SW 3 9 1013.7 - - - - - - - - -
 
Date/Time
EST
Temp

°C
Wind Pressure Rain
since 9am
mm
Weather Cloud Vis
km
Sea
Height
m
Swell
Dir
 
Speed
knots
Gust
knots
hPa Trend Height
m
Period
s
Dir
27/11:30pm 25.5 S 4 10 1014.0 - - - - - - - - -
27/11:00pm 25.7 SW 3 7 1014.2 - - - - - - - - -
27/10:30pm 25.8 SW 3 9 1014.1 - - - - - - - - -
27/10:00pm 25.8 NNE 3 8 1014.3 - - - - - - - - -
27/09:30pm 25.8 ESE 3 9 1014.0 - - - - - - - - -
27/09:00pm 25.9 ENE 8 12 1013.7 - - - - - - - - -
27/08:30pm 26.0 ENE 6 13 1013.5 - - - - - - - - -
27/08:00pm 26.1 ENE 5 12 1013.3 - - - - - - - - -
27/07:30pm 26.0 E 3 10 1013.3 - - - - - - - - -
27/07:00pm 26.0 E 3 11 1012.9 - - - - - - - - -
27/06:30pm 26.2 E 5 12 1012.9 - - - - - - - - -
27/06:00pm 26.3 ENE 6 13 1012.8 - - - - - - - - -
27/05:30pm 26.5 ENE 6 12 1012.5 - - - - - - - - -
27/05:00pm 26.6 E 5 13 1012.3 - - - - - - - - -
27/04:30pm 26.9 E 4 11 1012.0 - - - - - - - - -
27/04:00pm 27.1 ENE 5 11 1011.9 - - - - - - - - -
27/03:30pm 27.0 ENE 4 12 1012.1 - - - - - - - - -
27/03:00pm 27.5 ENE 7 13 1012.1 - - - - - - - - -
27/02:30pm 27.1 ENE 6 13 1012.2 - - - - - - - - -
27/02:00pm 27.6 E 4 12 1012.4 - - - - - - - - -
27/01:30pm 27.5 ENE 7 12 1012.8 - - - - - - - - -
27/01:00pm 28.1 ENE 3 9 1013.0 - - - - - - - - -
27/12:30pm 27.3 NE 7 11 1013.3 - - - - - - - - -
27/12:00pm 27.9 NE 6 12 1013.8 - - - - - - - - -
27/11:30am 26.8 ENE 8 11 1014.2 - - - - - - - - -
27/11:00am 27.3 NE 8 11 1014.4 - - - - - - - - -
27/10:30am 26.4 NE 7 10 1014.9 - - - - - - - - -
27/10:00am 27.5 ENE 5 11 1015.1 - - - - - - - - -
27/09:30am 27.4 NE 4 9 1015.2 - - - - - - - - -
27/09:00am 27.0 E 3 8 1015.2 - - - - - - - - -
27/08:30am 26.7 E 4 10 1015.2 - - - - - - - - -
27/08:00am 26.5 E 4 11 1015.2 - - - - - - - - -
27/07:30am 26.3 E 5 11 1015.1 - - - - - - - - -
27/07:00am 26.0 SSE 3 12 1014.9 - - - - - - - - -
27/06:30am 25.9 E 4 13 1014.6 - - - - - - - - -
27/06:00am 25.7 E 4 13 1014.2 - - - - - - - - -
27/05:30am 25.7 ESE 4 13 1014.0 - - - - - - - - -
27/05:00am 25.6 E 3 8 1013.7 - - - - - - - - -
27/04:30am 25.5 WSW 4 10 1013.6 - - - - - - - - -
27/04:00am 25.6 SW 4 8 1013.5 - - - - - - - - -
27/03:30am 25.6 W 3 8 1013.5 - - - - - - - - -
27/03:00am 25.6 WSW 4 9 1013.4 - - - - - - - - -
27/02:30am 25.5 WSW 4 10 1013.5 - - - - - - - - -
27/02:00am 25.5 SW 4 10 1013.6 - - - - - - - - -
27/01:30am 25.4 S 4 8 1013.7 - - - - - - - - -
27/01:00am 25.5 SW 3 8 1013.9 - - - - - - - - -
27/12:30am 25.5 S 4 7 1014.5 - - - - - - - - -
27/12:00am 25.5 SW 4 9 1014.6 - - - - - - - - -
 
Date/Time
EST
Temp

°C
Wind Pressure Rain
since 9am
mm
Weather Cloud Vis
km
Sea
Height
m
Swell
Dir
 
Speed
knots
Gust
knots
hPa Trend Height
m
Period
s
Dir
26/11:30pm 25.6 WSW 3 10 1014.8 - - - - - - - - -
26/11:00pm 25.8 WSW 3 8 1015.1 - - - - - - - - -
26/10:30pm 25.9 WSW 4 10 1015.2 - - - - - - - - -
26/10:00pm 25.8 SW 5 13 1015.1 - - - - - - - - -
26/09:30pm 25.8 SW 4 10 1015.3 - - - - - - - - -
26/09:00pm 25.8 W 4 8 1015.2 - - - - - - - - -
26/08:30pm 26.0 WNW 3 9 1014.8 - - - - - - - - -
26/08:00pm 26.0 W 4 8 1014.5 - - - - - - - - -
26/07:30pm 25.9 SW 4 10 1014.4 - - - - - - - - -
26/07:00pm 25.9 SSW 5 15 1013.9 - - - - - - - - -
26/06:30pm 26.2 SW 4 10 1013.4 - - - - - - - - -
26/06:00pm 26.3 W 4 10 1013.0 - - - - - - - - -
26/05:30pm 26.5 SW 4 10 1013.0 - - - - - - - - -
26/05:00pm 26.7 N 4 12 1012.9 - - - - - - - - -
26/04:30pm 26.6 ESE 3 10 1012.8 - - - - - - - - -
26/04:00pm 26.6 SE 3 10 1012.8 - - - - - - - - -
26/03:30pm 26.9 E 5 13 1012.9 - - - - - - - - -
26/03:00pm 27.0 E 4 13 1012.9 - - - - - - - - -
26/02:30pm 27.3 ENE 6 14 1013.2 - - - - - - - - -
26/02:00pm 27.3 ENE 6 14 1013.4 - - - - - - - - -
26/01:30pm 27.4 ENE 8 14 1013.6 - - - - - - - - -
26/01:00pm 27.3 ENE 7 15 1013.9 - - - - - - - - -
26/12:30pm 27.1 ENE 10 14 1014.2 - - - - - - - - -
26/12:00pm 27.4 ENE 8 13 1014.5 - - - - - - - - -
26/11:30am 27.4 ENE 5 12 1014.7 - - - - - - - - -
26/11:00am 27.2 ENE 7 16 1015.0 - - - - - - - - -
26/10:30am 27.4 ENE 8 16 1015.2 - - - - - - - - -
26/10:00am 27.2 ENE 6 14 1015.2 - - - - - - - - -
26/09:30am 27.0 ENE 5 12 1015.4 - - - - - - - - -
26/09:00am 27.0 ENE 5 13 1015.4 - - - - - - - - -
26/08:30am 26.6 ESE 5 14 1015.3 - - - - - - - - -
26/08:00am 26.6 ENE 4 11 1015.1 - - - - - - - - -

Other Formats:

Comma delimited format used in spreadsheet applications
http://www.bom.gov.au/fwo/IDQ60701/IDQ60701.95298.axf

JavaScript Object Notation format (JSON) in row-major order
http://www.bom.gov.au/fwo/IDQ60701/IDQ60701.95298.json